createdAt,value
2023-01-30T00:02:01.398Z,10.05
2023-01-30T00:04:29.529Z,9.48
2023-01-30T00:06:57.584Z,9.35
2023-01-30T00:09:25.542Z,11.40
2023-01-30T00:11:53.609Z,9.00
2023-01-30T00:14:22.970Z,9.73
2023-01-30T00:16:50.891Z,9.25
2023-01-30T00:19:18.884Z,8.52
2023-01-30T00:21:46.959Z,9.20
2023-01-30T00:24:15.449Z,8.73
2023-01-30T00:26:43.622Z,7.80
2023-01-30T00:29:11.687Z,8.10
2023-01-30T00:31:41.190Z,8.73
2023-01-30T00:34:09.407Z,6.60
2023-01-30T00:36:37.296Z,6.75
2023-01-30T00:39:05.348Z,7.30
2023-01-30T00:41:48.040Z,6.78
2023-01-30T00:44:49.305Z,6.70
2023-01-30T00:47:18.759Z,6.97
2023-01-30T00:49:46.667Z,6.80
2023-01-30T00:52:14.771Z,7.13
2023-01-30T00:54:42.953Z,7.20
2023-01-30T00:57:10.950Z,8.25
2023-01-30T00:59:38.878Z,6.85
2023-01-30T01:02:06.873Z,7.13
2023-01-30T01:04:43.295Z,7.18
2023-01-30T01:07:13.185Z,6.75
2023-01-30T01:09:41.292Z,8.13
2023-01-30T01:12:09.975Z,7.15
2023-01-30T01:14:38.140Z,7.50
2023-01-30T01:17:06.670Z,6.97
2023-01-30T01:19:36.511Z,5.63
2023-01-30T01:22:04.663Z,5.97
2023-01-30T01:24:34.483Z,5.53
2023-01-30T01:27:02.601Z,5.72
2023-01-30T01:29:30.632Z,5.72
2023-01-30T01:31:59.302Z,5.30
2023-01-30T01:34:27.385Z,5.60
2023-01-30T01:36:56.779Z,5.07
2023-01-30T01:39:45.390Z,5.82
2023-01-30T01:42:13.037Z,4.70
2023-01-30T01:45:01.843Z,5.55
2023-01-30T01:47:29.984Z,6.20
2023-01-30T01:49:58.203Z,6.20
2023-01-30T01:52:27.996Z,5.40
2023-01-30T01:55:00.846Z,6.13
2023-01-30T01:57:33.946Z,6.20
2023-01-30T02:00:06.495Z,5.85
2023-01-30T02:02:43.439Z,6.32
2023-01-30T02:05:14.111Z,6.95
2023-01-30T02:07:49.304Z,7.43
2023-01-30T02:10:20.292Z,6.20
2023-01-30T02:12:49.967Z,6.68
2023-01-30T02:15:19.862Z,7.35
2023-01-30T02:17:48.421Z,7.03
2023-01-30T02:20:26.326Z,7.53
2023-01-30T02:23:45.004Z,7.47
2023-01-30T02:26:55.577Z,6.05
2023-01-30T02:30:17.060Z,6.65
2023-01-30T02:32:53.177Z,6.75
2023-01-30T02:35:30.959Z,8.05
2023-01-30T02:38:16.668Z,6.68
2023-01-30T02:41:00.931Z,6.28
2023-01-30T02:43:39.001Z,6.10
2023-01-30T02:46:13.213Z,6.30
2023-01-30T02:48:47.995Z,6.45
2023-01-30T02:51:20.263Z,5.20
2023-01-30T02:53:49.491Z,4.97
2023-01-30T02:56:18.639Z,5.18
2023-01-30T02:58:51.469Z,5.47
2023-01-30T03:01:41.845Z,5.28
2023-01-30T03:04:32.153Z,5.20
2023-01-30T03:07:19.275Z,4.45
2023-01-30T03:09:55.271Z,4.78
2023-01-30T03:12:37.940Z,4.95
2023-01-30T03:15:13.388Z,5.47
2023-01-30T03:17:46.439Z,4.47
2023-01-30T03:20:20.970Z,4.88
2023-01-30T03:22:49.415Z,3.90
2023-01-30T03:25:21.909Z,3.35
2023-01-30T03:27:52.332Z,4.57
2023-01-30T03:30:20.733Z,4.07
2023-01-30T03:32:50.236Z,4.20
2023-01-30T03:35:20.139Z,4.22
2023-01-30T03:37:48.792Z,3.90
2023-01-30T03:40:18.294Z,4.30
2023-01-30T03:42:47.389Z,4.18
2023-01-30T03:45:16.457Z,4.38
2023-01-30T03:47:45.443Z,5.35
2023-01-30T03:50:13.889Z,3.33
2023-01-30T03:52:43.273Z,5.03
2023-01-30T03:57:44.629Z,4.55
2023-01-30T04:00:13.705Z,4.47
2023-01-30T04:02:44.736Z,4.32
2023-01-30T04:05:16.659Z,4.45
2023-01-30T04:07:52.400Z,4.18
2023-01-30T04:10:20.863Z,4.45
2023-01-30T04:12:49.038Z,4.00
2023-01-30T04:15:18.483Z,4.45
2023-01-30T04:18:10.095Z,4.45
2023-01-30T04:20:49.056Z,3.20
2023-01-30T04:23:22.868Z,5.13
2023-01-30T04:25:51.965Z,3.85
2023-01-30T04:28:22.523Z,3.70
2023-01-30T04:30:50.622Z,5.72
2023-01-30T04:33:40.239Z,4.40
2023-01-30T04:36:10.810Z,4.57
2023-01-30T04:38:40.297Z,3.88
2023-01-30T04:41:08.796Z,4.30
2023-01-30T04:43:40.633Z,4.20
2023-01-30T04:46:37.653Z,4.82
2023-01-30T04:49:05.521Z,5.50
2023-01-30T04:51:33.916Z,4.63
2023-01-30T04:54:03.980Z,4.85
2023-01-30T04:56:32.665Z,6.50
2023-01-30T04:59:00.818Z,4.47
2023-01-30T05:01:36.410Z,5.28
2023-01-30T05:04:05.520Z,4.80
2023-01-30T05:06:34.881Z,4.10
2023-01-30T05:09:05.299Z,3.72
2023-01-30T05:11:34.440Z,4.60
2023-01-30T05:14:03.026Z,4.40
2023-01-30T05:16:31.493Z,5.22
2023-01-30T05:18:59.730Z,4.55
2023-01-30T05:21:28.923Z,4.78
2023-01-30T05:23:58.316Z,4.75
2023-01-30T05:26:27.921Z,5.53
2023-01-30T05:28:58.240Z,4.40
2023-01-30T05:31:26.895Z,4.68
2023-01-30T05:33:55.902Z,4.53
2023-01-30T05:36:24.839Z,4.30
2023-01-30T05:38:53.129Z,4.43
2023-01-30T05:41:21.419Z,6.32
2023-01-30T05:43:54.202Z,4.85
2023-01-30T05:46:22.538Z,4.97
2023-01-30T05:48:50.805Z,5.47
2023-01-30T05:51:20.787Z,4.75
2023-01-30T05:53:49.431Z,3.88
2023-01-30T05:56:18.405Z,5.25
2023-01-30T05:58:52.027Z,6.00
2023-01-30T06:01:23.254Z,5.05
2023-01-30T06:03:51.599Z,4.47
2023-01-30T06:06:20.521Z,5.43
2023-01-30T06:08:49.325Z,5.88
2023-01-30T06:11:18.748Z,4.25
2023-01-30T06:13:46.898Z,4.05
2023-01-30T06:16:17.339Z,6.22
2023-01-30T06:18:48.291Z,6.55
2023-01-30T06:21:17.232Z,4.85
2023-01-30T06:23:46.345Z,4.72
2023-01-30T06:26:14.746Z,4.93
2023-01-30T06:28:42.989Z,4.13
2023-01-30T06:31:11.782Z,4.45
2023-01-30T06:33:39.837Z,4.97
2023-01-30T06:36:10.275Z,4.72
2023-01-30T06:38:38.445Z,5.22
2023-01-30T06:41:07.417Z,6.13
2023-01-30T06:43:35.497Z,4.75
2023-01-30T06:46:03.713Z,5.25
2023-01-30T06:48:31.869Z,5.25
2023-01-30T06:51:00.359Z,5.10
2023-01-30T06:53:31.219Z,5.78
2023-01-30T06:56:00.206Z,5.07
2023-01-30T06:58:28.724Z,4.57
2023-01-30T07:00:57.500Z,4.40
2023-01-30T07:03:27.307Z,3.83
2023-01-30T07:05:56.249Z,5.72
2023-01-30T07:08:24.488Z,5.18
2023-01-30T07:10:54.243Z,4.32
2023-01-30T07:13:23.049Z,5.45
2023-01-30T07:15:51.896Z,4.50
2023-01-30T07:18:20.923Z,5.32
2023-01-30T07:20:49.648Z,5.75
2023-01-30T07:23:18.920Z,5.05
2023-01-30T07:25:47.509Z,5.38
2023-01-30T07:28:16.831Z,5.30
2023-01-30T07:30:45.065Z,4.90
2023-01-30T07:33:13.202Z,4.97
2023-01-30T07:35:41.282Z,4.68
2023-01-30T07:38:09.522Z,5.03
2023-01-30T07:40:38.483Z,4.47
2023-01-30T07:43:08.580Z,5.22
2023-01-30T07:45:41.536Z,5.32
2023-01-30T07:48:11.322Z,5.60
2023-01-30T07:50:39.664Z,4.97
2023-01-30T07:53:09.465Z,5.30
2023-01-30T07:55:38.368Z,5.40
2023-01-30T07:58:06.541Z,4.68
2023-01-30T08:00:35.375Z,5.68
2023-01-30T08:03:05.424Z,5.15
2023-01-30T08:05:34.318Z,4.03
2023-01-30T08:08:02.506Z,5.07
2023-01-30T08:10:30.787Z,4.82
2023-01-30T08:12:58.854Z,4.32
2023-01-30T08:15:27.234Z,5.03
2023-01-30T08:17:56.603Z,4.35
2023-01-30T08:20:27.535Z,4.70
2023-01-30T08:22:56.333Z,5.18
2023-01-30T08:25:24.983Z,4.55
2023-01-30T08:27:53.914Z,4.97
2023-01-30T08:30:24.065Z,5.28
2023-01-30T08:32:52.156Z,5.75
2023-01-30T08:35:21.103Z,5.13
2023-01-30T08:37:51.269Z,4.75
2023-01-30T08:40:20.390Z,4.57
2023-01-30T08:42:48.717Z,5.53
2023-01-30T08:45:17.301Z,5.85
2023-01-30T08:47:45.472Z,4.63
2023-01-30T08:50:13.773Z,5.15
2023-01-30T08:52:42.078Z,5.07
2023-01-30T08:55:13.046Z,5.65
2023-01-30T08:57:41.425Z,5.10
2023-01-30T09:00:11.889Z,6.05
2023-01-30T09:02:40.604Z,4.40
2023-01-30T09:05:11.168Z,4.65
2023-01-30T09:07:39.672Z,4.45
2023-01-30T09:10:08.246Z,5.32
2023-01-30T09:12:37.656Z,5.65
2023-01-30T09:15:07.353Z,5.13
2023-01-30T09:17:35.518Z,5.40
2023-01-30T09:20:04.527Z,5.15
2023-01-30T09:22:32.797Z,6.18
2023-01-30T09:25:01.062Z,6.47
2023-01-30T09:27:29.256Z,5.95
2023-01-30T09:29:58.849Z,7.78
2023-01-30T09:32:27.336Z,5.30
2023-01-30T09:34:55.410Z,5.93
2023-01-30T09:37:23.610Z,5.40
2023-01-30T09:39:51.927Z,4.90
2023-01-30T09:43:03.129Z,4.38
2023-01-30T09:45:54.667Z,5.20
2023-01-30T09:48:31.096Z,5.57
2023-01-30T09:51:31.567Z,5.57
2023-01-30T09:54:24.442Z,5.63
2023-01-30T09:57:02.771Z,5.30
2023-01-30T09:59:38.488Z,5.38
2023-01-30T10:02:25.258Z,6.05
2023-01-30T10:05:01.794Z,6.03
2023-01-30T10:07:45.576Z,5.78
2023-01-30T10:10:22.731Z,5.68
2023-01-30T10:13:04.376Z,6.03
2023-01-30T10:15:48.757Z,5.45
2023-01-30T10:21:11.373Z,5.93
2023-01-30T10:24:00.801Z,5.97
2023-01-30T10:26:31.001Z,4.32
2023-01-30T10:29:07.771Z,4.18
2023-01-30T10:31:44.081Z,2.58
2023-01-30T10:34:18.382Z,1.48
2023-01-30T10:36:56.001Z,1.55
2023-01-30T10:39:33.497Z,1.85
2023-01-30T10:42:11.979Z,1.13
2023-01-30T10:44:42.970Z,1.02
2023-01-30T10:47:46.295Z,1.10
2023-01-30T10:50:19.459Z,0.80
2023-01-30T10:52:58.466Z,1.27
2023-01-30T10:55:37.622Z,2.30
2023-01-30T10:58:19.304Z,2.20
2023-01-30T11:00:56.337Z,2.55
2023-01-30T11:03:35.209Z,2.53
2023-01-30T11:06:09.042Z,2.70
2023-01-30T11:08:38.779Z,2.80
2023-01-30T11:11:27.289Z,2.90
2023-01-30T11:14:04.427Z,3.83
2023-01-30T11:16:34.475Z,3.45
2023-01-30T11:19:22.737Z,3.30
2023-01-30T11:21:53.206Z,4.03
2023-01-30T11:24:26.198Z,4.85
2023-01-30T11:26:54.503Z,4.50
2023-01-30T11:29:28.941Z,3.35
2023-01-30T11:31:58.355Z,4.00
2023-01-30T11:34:26.515Z,4.55
2023-01-30T11:36:54.694Z,3.17
2023-01-30T11:39:30.200Z,2.53
2023-01-30T11:42:01.951Z,3.20
2023-01-30T11:44:36.407Z,3.15
2023-01-30T11:47:10.036Z,2.95
2023-01-30T11:52:26.348Z,2.92
2023-01-30T11:55:05.962Z,2.63
2023-01-30T11:57:42.996Z,3.17
2023-01-30T12:00:20.858Z,3.28
2023-01-30T12:02:51.221Z,2.92
2023-01-30T12:05:26.948Z,3.70
2023-01-30T12:07:55.346Z,4.05
2023-01-30T12:10:33.701Z,3.97
2023-01-30T12:13:13.859Z,4.68
2023-01-30T12:15:45.542Z,3.67
2023-01-30T12:18:19.604Z,4.20
2023-01-30T12:20:54.060Z,4.10
2023-01-30T12:23:32.050Z,4.90
2023-01-30T12:26:08.738Z,4.22
2023-01-30T12:28:43.977Z,5.05
2023-01-30T12:31:17.579Z,4.88
2023-01-30T12:33:45.777Z,4.75
2023-01-30T12:36:24.750Z,4.68
2023-01-30T12:39:02.616Z,5.03
2023-01-30T12:41:43.723Z,5.30
2023-01-30T12:44:29.677Z,5.38
2023-01-30T12:47:17.033Z,5.53
2023-01-30T12:49:58.831Z,4.45
2023-01-30T12:52:52.146Z,4.75
2023-01-30T12:55:27.521Z,5.53
2023-01-30T12:58:04.277Z,4.65
2023-01-30T13:00:46.586Z,4.25
2023-01-30T13:03:26.880Z,5.35
2023-01-30T13:06:09.095Z,4.70
2023-01-30T13:08:55.291Z,3.85
2023-01-30T13:11:42.177Z,4.72
2023-01-30T13:14:20.717Z,4.88
2023-01-30T13:17:15.560Z,4.40
2023-01-30T13:19:50.072Z,4.95
2023-01-30T13:22:25.266Z,5.45
2023-01-30T13:25:02.010Z,4.40
2023-01-30T13:27:35.664Z,5.00
2023-01-30T13:32:41.731Z,5.00
2023-01-30T13:35:18.403Z,5.38
2023-01-30T13:37:50.019Z,7.95
2023-01-30T13:40:21.200Z,5.68
2023-01-30T13:42:55.322Z,5.97
2023-01-30T13:45:28.211Z,5.38
2023-01-30T13:48:15.043Z,5.47
2023-01-30T13:50:59.694Z,6.18
2023-01-30T13:53:34.577Z,6.88
2023-01-30T13:56:16.273Z,6.85
2023-01-30T13:59:01.319Z,7.38
2023-01-30T14:02:03.039Z,6.47
2023-01-30T14:04:50.611Z,6.30
2023-01-30T14:07:24.174Z,6.07
2023-01-30T14:10:04.734Z,8.20
2023-01-30T14:12:37.705Z,6.63
2023-01-30T14:15:20.808Z,6.32
2023-01-30T14:18:00.619Z,5.30
2023-01-30T14:20:31.546Z,5.05
2023-01-30T14:23:01.796Z,7.60
2023-01-30T14:25:46.229Z,5.85
2023-01-30T14:28:51.021Z,6.28
2023-01-30T14:31:52.846Z,5.10
2023-01-30T14:34:51.243Z,7.15
2023-01-30T14:37:46.303Z,4.90
2023-01-30T14:40:38.832Z,5.15
2023-01-30T14:43:40.709Z,6.22
2023-01-30T14:46:42.096Z,5.53
2023-01-30T14:49:31.037Z,5.75
2023-01-30T14:52:00.027Z,6.40
2023-01-30T14:54:51.485Z,6.65
2023-01-30T14:57:23.815Z,6.38
2023-01-30T15:00:14.336Z,5.70
2023-01-30T15:02:44.994Z,5.13
2023-01-30T15:05:18.744Z,5.25
2023-01-30T15:07:50.483Z,4.13
2023-01-30T15:10:44.204Z,3.80
2023-01-30T15:13:33.437Z,3.30
2023-01-30T15:16:15.300Z,3.85
2023-01-30T15:19:11.645Z,3.30
2023-01-30T15:21:59.352Z,3.63
2023-01-30T15:25:01.564Z,3.78
2023-01-30T15:27:36.888Z,4.32
2023-01-30T15:30:20.378Z,4.47
2023-01-30T15:32:48.714Z,3.60
2023-01-30T15:35:28.378Z,4.53
2023-01-30T15:37:57.978Z,4.43
2023-01-30T15:40:28.489Z,3.67
2023-01-30T15:43:14.233Z,4.40
2023-01-30T15:45:56.571Z,3.90
2023-01-30T15:48:52.051Z,5.93
2023-01-30T15:51:27.451Z,5.45
2023-01-30T15:53:58.266Z,5.07
2023-01-30T15:56:28.739Z,5.43
2023-01-30T15:59:00.953Z,5.63
2023-01-30T16:01:29.797Z,6.07
2023-01-30T16:04:00.383Z,4.97
2023-01-30T16:06:32.653Z,4.88
2023-01-30T16:09:03.073Z,5.53
2023-01-30T16:11:39.741Z,5.40
2023-01-30T16:14:13.867Z,4.63
2023-01-30T16:16:46.234Z,4.88
2023-01-30T16:19:26.548Z,4.20
2023-01-30T16:21:58.027Z,5.20
2023-01-30T16:24:29.920Z,5.25
2023-01-30T16:27:02.495Z,7.05
2023-01-30T16:29:34.361Z,7.55
2023-01-30T16:32:03.366Z,6.07
2023-01-30T16:34:35.249Z,6.63
2023-01-30T16:37:08.719Z,5.03
2023-01-30T16:42:23.605Z,5.07
2023-01-30T16:45:00.183Z,5.82
2023-01-30T16:47:31.470Z,5.25
2023-01-30T16:49:59.716Z,5.25
2023-01-30T16:52:34.771Z,5.55
2023-01-30T16:55:06.346Z,6.55
2023-01-30T16:57:40.450Z,6.85
2023-01-30T17:00:22.826Z,5.82
2023-01-30T17:02:53.680Z,5.90
2023-01-30T17:05:24.518Z,5.30
2023-01-30T17:07:54.196Z,6.15
2023-01-30T17:10:56.276Z,5.95
2023-01-30T17:13:37.713Z,6.10
2023-01-30T17:16:28.576Z,5.05
2023-01-30T17:18:58.227Z,5.05
2023-01-30T17:21:30.418Z,4.68
2023-01-30T17:24:02.712Z,5.15
2023-01-30T17:26:32.281Z,5.38
2023-01-30T17:29:00.763Z,5.57
2023-01-30T17:31:30.353Z,6.50
2023-01-30T17:33:58.340Z,5.35
2023-01-30T17:36:28.592Z,5.68
2023-01-30T17:38:58.482Z,5.40
2023-01-30T17:41:28.613Z,5.97
2023-01-30T17:43:56.747Z,5.35
2023-01-30T17:46:32.411Z,5.75
2023-01-30T17:49:02.173Z,5.50
2023-01-30T17:51:30.360Z,6.07
2023-01-30T17:53:58.477Z,5.90
2023-01-30T17:56:32.401Z,6.22
2023-01-30T17:59:00.461Z,7.00
2023-01-30T18:01:28.662Z,5.50
2023-01-30T18:03:56.745Z,6.85
2023-01-30T18:06:27.263Z,6.53
2023-01-30T18:08:55.398Z,5.65
2023-01-30T18:11:23.923Z,5.70
2023-01-30T18:13:52.123Z,6.68
2023-01-30T18:16:24.685Z,7.63
2023-01-30T18:18:52.777Z,6.40
2023-01-30T18:21:22.281Z,5.18
2023-01-30T18:23:51.969Z,4.43
2023-01-30T18:26:20.463Z,4.45
2023-01-30T18:28:49.266Z,5.03
2023-01-30T18:31:18.597Z,4.40
2023-01-30T18:33:47.338Z,4.90
2023-01-30T18:36:17.450Z,4.70
2023-01-30T18:38:45.923Z,4.35
2023-01-30T18:41:17.332Z,4.22
2023-01-30T18:43:48.447Z,3.90
2023-01-30T18:46:18.508Z,5.22
2023-01-30T18:48:47.777Z,4.97
2023-01-30T18:51:17.049Z,4.80
2023-01-30T18:53:45.064Z,5.63
2023-01-30T18:56:18.006Z,4.82
2023-01-30T18:58:46.465Z,4.70
2023-01-30T19:01:16.621Z,4.90
2023-01-30T19:03:45.137Z,5.35
2023-01-30T19:06:16.480Z,4.93
2023-01-30T19:08:45.064Z,5.72
2023-01-30T19:11:33.363Z,4.82
2023-01-30T19:14:01.513Z,4.95
2023-01-30T19:16:32.224Z,5.05
2023-01-30T19:19:01.130Z,4.38
2023-01-30T19:21:29.783Z,5.13
2023-01-30T19:23:58.132Z,3.47
2023-01-30T19:26:29.602Z,5.78
2023-01-30T19:28:57.650Z,5.00
2023-01-30T19:31:25.839Z,4.00
2023-01-30T19:34:00.705Z,4.32
2023-01-30T19:36:31.718Z,4.07
2023-01-30T19:39:00.520Z,4.82
2023-01-30T19:41:32.198Z,4.50
2023-01-30T19:44:04.349Z,4.65
2023-01-30T19:46:33.982Z,4.20
2023-01-30T19:49:03.482Z,5.25
2023-01-30T19:51:33.752Z,5.63
2023-01-30T19:54:04.491Z,4.28
2023-01-30T19:56:34.735Z,4.05
2023-01-30T19:59:04.056Z,4.95
2023-01-30T20:01:35.953Z,4.93
2023-01-30T20:04:05.365Z,5.25
2023-01-30T20:06:35.635Z,4.53
2023-01-30T20:09:06.436Z,5.60
2023-01-30T20:11:37.883Z,4.38
2023-01-30T20:14:07.215Z,4.93
2023-01-30T20:16:36.559Z,5.88
2023-01-30T20:19:07.720Z,5.32
2023-01-30T20:21:37.362Z,5.07
2023-01-30T20:24:06.860Z,4.53
2023-01-30T20:26:39.757Z,5.40
2023-01-30T20:29:10.424Z,5.45
2023-01-30T20:31:39.631Z,4.75
2023-01-30T20:34:09.692Z,6.63
2023-01-30T20:36:37.823Z,4.88
2023-01-30T20:39:07.589Z,4.85
2023-01-30T20:41:38.841Z,5.13
2023-01-30T20:44:08.537Z,4.93
2023-01-30T20:46:41.345Z,5.20
2023-01-30T20:49:13.684Z,4.55
2023-01-30T20:51:42.029Z,4.32
2023-01-30T20:54:12.305Z,4.55
2023-01-30T20:56:43.757Z,4.15
2023-01-30T20:59:13.533Z,3.95
2023-01-30T21:01:42.459Z,4.10
2023-01-30T21:04:13.518Z,4.05
2023-01-30T21:06:45.723Z,4.03
2023-01-30T21:09:17.869Z,4.07
2023-01-30T21:11:48.091Z,4.72
2023-01-30T21:14:16.780Z,4.18
2023-01-30T21:16:45.381Z,4.38
2023-01-30T21:19:16.296Z,3.13
2023-01-30T21:21:51.140Z,5.50
2023-01-30T21:24:23.921Z,4.07
2023-01-30T21:26:54.207Z,5.43
2023-01-30T21:29:24.803Z,4.90
2023-01-30T21:31:53.387Z,5.53
2023-01-30T21:34:21.520Z,4.05
2023-01-30T21:37:17.789Z,4.75
2023-01-30T21:40:04.049Z,7.32
2023-01-30T21:42:51.568Z,5.72
2023-01-30T21:45:21.353Z,4.90
2023-01-30T21:47:52.743Z,4.22
2023-01-30T21:50:21.416Z,5.13
2023-01-30T21:52:49.511Z,4.38
2023-01-30T21:55:18.173Z,4.53
2023-01-30T21:57:47.663Z,4.22
2023-01-30T22:00:16.083Z,4.47
2023-01-30T22:02:44.115Z,4.15
2023-01-30T22:05:12.390Z,4.72
2023-01-30T22:07:40.456Z,4.22
2023-01-30T22:10:09.346Z,3.90
2023-01-30T22:12:40.013Z,5.85
2023-01-30T22:15:10.740Z,4.78
2023-01-30T22:17:38.931Z,4.25
2023-01-30T22:20:09.991Z,5.43
2023-01-30T22:22:38.622Z,4.75
2023-01-30T22:25:08.000Z,4.00
2023-01-30T22:27:36.371Z,3.83
2023-01-30T22:30:05.449Z,5.00
2023-01-30T22:32:36.186Z,3.90
2023-01-30T22:35:07.559Z,4.47
2023-01-30T22:37:35.960Z,4.65
2023-01-30T22:40:04.404Z,4.80
2023-01-30T22:42:32.623Z,4.60
2023-01-30T22:45:00.548Z,4.07
2023-01-30T22:47:29.118Z,4.53
2023-01-30T22:49:58.519Z,3.55
2023-01-30T22:52:26.461Z,4.75
2023-01-30T22:54:54.430Z,4.70
2023-01-30T22:57:22.601Z,4.18
2023-01-30T22:59:52.001Z,3.53
2023-01-30T23:02:20.088Z,4.63
2023-01-30T23:04:49.173Z,5.15
2023-01-30T23:07:20.834Z,6.20
2023-01-30T23:09:48.975Z,4.03
2023-01-30T23:12:34.798Z,4.45
2023-01-30T23:15:06.103Z,3.95
2023-01-30T23:17:52.546Z,4.88
2023-01-30T23:20:20.974Z,4.38
2023-01-30T23:22:53.319Z,3.97
2023-01-30T23:25:21.654Z,5.57
2023-01-30T23:27:50.359Z,3.78
2023-01-30T23:30:19.311Z,3.55
2023-01-30T23:32:47.711Z,3.80
2023-01-30T23:35:15.856Z,3.38
2023-01-30T23:38:01.152Z,3.08
2023-01-30T23:40:30.553Z,4.88
2023-01-30T23:42:58.516Z,4.00
2023-01-30T23:45:28.527Z,3.65
2023-01-30T23:47:57.133Z,5.60
2023-01-30T23:50:25.224Z,3.22
2023-01-30T23:52:53.369Z,4.93
2023-01-30T23:55:22.023Z,4.03
2023-01-30T23:57:51.860Z,3.55
